General Abelardo L. Rodríguez International Airport
MMTJ : now visible

Airfield :











YOU CAN JOIN US ON...

 
LOGIN :

Register | Disclaimer

   EN    FR    IT 

 









Legend :    VFR   Marginal VFR   IFR   Intensive IFR   Very Intensive IFR
Visi :
Ceiling :
>= 8 km
>= 3000ft
5 to 8 km
1000 to 3000 ft
1500m to 5 km
500 to 1000 ft
800 to 1500m
200 to 500 ft
< 800m
< 200 ft
Symbols :   Thunderstorms  Fog  Heavy snow  Heavy precipitations  Wind > 20 kt






- Airport Elevation : 489 ft
- IATA code : TIJ


MMTJ - General Abelardo L. Rodríguez International

CURRENT METAR :
  • 201641Z 29003KT 5SM SKC 19/16 A2994 RMK ISOL SC HZY

EXPIRED METARs :
  • 201628Z 30005KT 5SM FEW016 19/16 A2994 RMK 8/500 HZY
  • 201601Z 00000KT 5SM BKN015 18/16 A2995 RMK 8/500 HZY
  • 201514Z 36003KT 5SM BKN010 17/16 A2994 RMK 8/600 HZY
  • 201442Z 35003KT 3SM BR OVC006 17/16 A2994 RMK SLP/// 5//// 984 8/6//

TAF COR TAF MMTJ
Valid from the 20 at 13:00 until the 21 at 18:00 UTC


201256Z 2013/2118 00000KT 4SM BR HZ OVC005 TX26/2020Z TN17/2013Z
TEMPO 2013/2015 2SM BR HZ
FM201500 00000KT 4SM BR HZ BKN007
FM201600 30010KT 6SM HZ SCT010
BECMG 2017/2018 P6SM SKC
FM210300 30005KT 5SM HZ BKN250
FM210900 00000KT 1/2SM FG VV005
FM211500 30005KT 5SM HZ SCT010
MMFR FIR / North America



MET'MAP, your aeronautical weather chart ! - Copyright ORBIFLY December 2007 - Disclaimer

ORBIFLY MET'MAP TEAM :

Programming & Development : Alexandra Zaïnal
Concept & original design : Baudouin d'Aumeries
Assistance for programming : Marc-Olivier Méhu
Technical & hardware support : Manuel Goepfert

Contact : metmap@orbifly.com




SOURCES & CREDITS :

   NOAA       Earth
Advisory